sensor_id;sensor_type;location;lat;lon;timestamp;temperature;humidity
34776;DHT22;20989;52.566;13.346;2022-11-20T00:00:41;20.00;52.70
34776;DHT22;20989;52.566;13.346;2022-11-20T00:03:42;20.00;52.60
34776;DHT22;20989;52.566;13.346;2022-11-20T00:06:43;20.00;52.90
34776;DHT22;20989;52.566;13.346;2022-11-20T00:09:44;19.90;52.90
34776;DHT22;20989;52.566;13.346;2022-11-20T00:12:45;19.90;52.90
34776;DHT22;20989;52.566;13.346;2022-11-20T00:15:45;19.90;52.70
34776;DHT22;20989;52.566;13.346;2022-11-20T00:18:46;19.90;53.00
34776;DHT22;20989;52.566;13.346;2022-11-20T00:21:47;19.90;52.80
34776;DHT22;20989;52.566;13.346;2022-11-20T00:24:51;19.90;53.10
34776;DHT22;20989;52.566;13.346;2022-11-20T00:27:52;19.90;53.20
34776;DHT22;20989;52.566;13.346;2022-11-20T00:30:54;19.80;53.20
34776;DHT22;20989;52.566;13.346;2022-11-20T00:34:00;19.90;53.40
34776;DHT22;20989;52.566;13.346;2022-11-20T00:37:00;19.80;53.40
34776;DHT22;20989;52.566;13.346;2022-11-20T00:40:01;19.80;53.20
34776;DHT22;20989;52.566;13.346;2022-11-20T00:43:02;19.80;53.40
34776;DHT22;20989;52.566;13.346;2022-11-20T00:46:05;19.80;53.40
34776;DHT22;20989;52.566;13.346;2022-11-20T00:49:06;19.90;53.20
34776;DHT22;20989;52.566;13.346;2022-11-20T00:52:07;19.80;53.50
34776;DHT22;20989;52.566;13.346;2022-11-20T00:55:07;19.80;53.50
34776;DHT22;20989;52.566;13.346;2022-11-20T00:58:08;19.80;53.40
34776;DHT22;20989;52.566;13.346;2022-11-20T01:01:15;19.80;53.50
34776;DHT22;20989;52.566;13.346;2022-11-20T01:04:16;19.70;53.20
34776;DHT22;20989;52.566;13.346;2022-11-20T01:07:16;19.70;53.60
34776;DHT22;20989;52.566;13.346;2022-11-20T01:10:17;19.70;53.30
34776;DHT22;20989;52.566;13.346;2022-11-20T01:13:18;19.70;53.60
34776;DHT22;20989;52.566;13.346;2022-11-20T01:16:40;19.70;53.60
34776;DHT22;20989;52.566;13.346;2022-11-20T01:19:42;19.70;53.70
34776;DHT22;20989;52.566;13.346;2022-11-20T01:22:42;19.70;53.40
34776;DHT22;20989;52.566;13.346;2022-11-20T01:25:43;19.70;53.60
34776;DHT22;20989;52.566;13.346;2022-11-20T01:28:44;19.70;53.10
34776;DHT22;20989;52.566;13.346;2022-11-20T01:31:46;19.80;53.40
34776;DHT22;20989;52.566;13.346;2022-11-20T01:34:46;19.70;53.20
34776;DHT22;20989;52.566;13.346;2022-11-20T01:37:47;19.80;53.00
34776;DHT22;20989;52.566;13.346;2022-11-20T01:40:55;19.80;53.20
34776;DHT22;20989;52.566;13.346;2022-11-20T01:43:56;19.80;52.80
34776;DHT22;20989;52.566;13.346;2022-11-20T01:47:00;19.70;52.90
34776;DHT22;20989;52.566;13.346;2022-11-20T01:50:14;19.80;52.80
34776;DHT22;20989;52.566;13.346;2022-11-20T01:53:18;19.80;52.90
34776;DHT22;20989;52.566;13.346;2022-11-20T01:56:21;19.80;52.90
34776;DHT22;20989;52.566;13.346;2022-11-20T01:59:23;19.80;52.80
34776;DHT22;20989;52.566;13.346;2022-11-20T02:02:26;19.80;52.90
34776;DHT22;20989;52.566;13.346;2022-11-20T02:05:35;19.80;53.00
34776;DHT22;20989;52.566;13.346;2022-11-20T02:08:37;19.80;52.90
34776;DHT22;20989;52.566;13.346;2022-11-20T02:11:38;19.80;53.00
34776;DHT22;20989;52.566;13.346;2022-11-20T02:14:39;19.80;53.00
34776;DHT22;20989;52.566;13.346;2022-11-20T02:17:39;19.80;52.80
34776;DHT22;20989;52.566;13.346;2022-11-20T02:20:44;19.80;52.90
34776;DHT22;20989;52.566;13.346;2022-11-20T02:24:02;19.80;52.90
34776;DHT22;20989;52.566;13.346;2022-11-20T02:27:09;19.80;52.90
34776;DHT22;20989;52.566;13.346;2022-11-20T02:30:11;19.80;52.90
34776;DHT22;20989;52.566;13.346;2022-11-20T02:33:12;19.80;52.90
34776;DHT22;20989;52.566;13.346;2022-11-20T02:36:15;19.80;52.90
34776;DHT22;20989;52.566;13.346;2022-11-20T02:39:16;19.70;53.00
34776;DHT22;20989;52.566;13.346;2022-11-20T02:42:17;19.70;52.90
34776;DHT22;20989;52.566;13.346;2022-11-20T02:45:18;19.80;53.00
34776;DHT22;20989;52.566;13.346;2022-11-20T02:48:19;19.70;52.90
34776;DHT22;20989;52.566;13.346;2022-11-20T02:51:20;19.80;53.10
34776;DHT22;20989;52.566;13.346;2022-11-20T02:54:21;19.80;53.00
34776;DHT22;20989;52.566;13.346;2022-11-20T02:57:21;19.80;53.00
34776;DHT22;20989;52.566;13.346;2022-11-20T03:00:22;19.70;53.10
34776;DHT22;20989;52.566;13.346;2022-11-20T03:03:23;19.70;53.00
34776;DHT22;20989;52.566;13.346;2022-11-20T03:06:25;19.70;53.10
34776;DHT22;20989;52.566;13.346;2022-11-20T03:09:27;19.70;53.00
34776;DHT22;20989;52.566;13.346;2022-11-20T03:12:28;19.70;53.00
34776;DHT22;20989;52.566;13.346;2022-11-20T03:15:30;19.70;52.90
34776;DHT22;20989;52.566;13.346;2022-11-20T03:18:32;19.70;53.00
34776;DHT22;20989;52.566;13.346;2022-11-20T03:21:34;19.70;53.10
34776;DHT22;20989;52.566;13.346;2022-11-20T03:24:35;19.70;53.00
34776;DHT22;20989;52.566;13.346;2022-11-20T03:27:35;19.70;53.00
34776;DHT22;20989;52.566;13.346;2022-11-20T03:30:36;19.70;52.90
34776;DHT22;20989;52.566;13.346;2022-11-20T03:33:37;19.70;53.10
34776;DHT22;20989;52.566;13.346;2022-11-20T03:36:40;19.70;53.10
34776;DHT22;20989;52.566;13.346;2022-11-20T03:39:40;19.70;53.00
34776;DHT22;20989;52.566;13.346;2022-11-20T03:42:41;19.70;53.00
34776;DHT22;20989;52.566;13.346;2022-11-20T03:45:48;19.70;52.90
34776;DHT22;20989;52.566;13.346;2022-11-20T03:48:49;19.70;53.00
34776;DHT22;20989;52.566;13.346;2022-11-20T03:51:49;19.70;53.10
34776;DHT22;20989;52.566;13.346;2022-11-20T03:54:50;19.70;53.00
34776;DHT22;20989;52.566;13.346;2022-11-20T03:57:51;19.70;53.20
34776;DHT22;20989;52.566;13.346;2022-11-20T04:00:52;19.70;53.10
34776;DHT22;20989;52.566;13.346;2022-11-20T04:03:53;19.70;53.10
34776;DHT22;20989;52.566;13.346;2022-11-20T04:06:55;19.70;53.10
34776;DHT22;20989;52.566;13.346;2022-11-20T04:09:55;19.70;53.00
34776;DHT22;20989;52.566;13.346;2022-11-20T04:12:56;19.70;53.00
34776;DHT22;20989;52.566;13.346;2022-11-20T04:15:57;19.70;53.10
34776;DHT22;20989;52.566;13.346;2022-11-20T04:19:01;19.70;53.10
34776;DHT22;20989;52.566;13.346;2022-11-20T04:22:02;19.70;53.10
34776;DHT22;20989;52.566;13.346;2022-11-20T04:25:02;19.70;53.10
34776;DHT22;20989;52.566;13.346;2022-11-20T04:28:03;19.70;53.10
34776;DHT22;20989;52.566;13.346;2022-11-20T04:31:10;19.70;53.10
34776;DHT22;20989;52.566;13.346;2022-11-20T04:34:11;19.70;53.10
34776;DHT22;20989;52.566;13.346;2022-11-20T04:37:12;19.70;53.00
34776;DHT22;20989;52.566;13.346;2022-11-20T04:40:13;19.70;53.00
34776;DHT22;20989;52.566;13.346;2022-11-20T04:43:14;19.80;53.00
34776;DHT22;20989;52.566;13.346;2022-11-20T04:46:16;19.70;52.90
34776;DHT22;20989;52.566;13.346;2022-11-20T04:49:17;19.70;53.10
34776;DHT22;20989;52.566;13.346;2022-11-20T04:52:18;19.70;53.10
34776;DHT22;20989;52.566;13.346;2022-11-20T04:55:19;19.80;53.10
34776;DHT22;20989;52.566;13.346;2022-11-20T04:58:19;19.70;53.00
34776;DHT22;20989;52.566;13.346;2022-11-20T05:01:24;19.70;53.10
34776;DHT22;20989;52.566;13.346;2022-11-20T05:04:25;19.70;53.10
34776;DHT22;20989;52.566;13.346;2022-11-20T05:07:25;19.70;53.10
34776;DHT22;20989;52.566;13.346;2022-11-20T05:10:26;19.70;53.20
34776;DHT22;20989;52.566;13.346;2022-11-20T05:13:28;19.70;53.10
34776;DHT22;20989;52.566;13.346;2022-11-20T05:16:29;19.70;53.10
34776;DHT22;20989;52.566;13.346;2022-11-20T05:19:30;19.70;53.10
34776;DHT22;20989;52.566;13.346;2022-11-20T05:22:31;19.70;53.20
34776;DHT22;20989;52.566;13.346;2022-11-20T05:25:31;19.60;53.20
34776;DHT22;20989;52.566;13.346;2022-11-20T05:28:33;19.60;53.20
34776;DHT22;20989;52.566;13.346;2022-11-20T05:31:34;19.70;53.20
34776;DHT22;20989;52.566;13.346;2022-11-20T05:34:34;19.60;53.20
34776;DHT22;20989;52.566;13.346;2022-11-20T05:37:35;19.60;53.30
34776;DHT22;20989;52.566;13.346;2022-11-20T05:40:36;19.70;53.20
34776;DHT22;20989;52.566;13.346;2022-11-20T05:43:38;19.60;53.20
34776;DHT22;20989;52.566;13.346;2022-11-20T05:46:39;19.60;53.30
34776;DHT22;20989;52.566;13.346;2022-11-20T05:49:40;19.70;53.30
34776;DHT22;20989;52.566;13.346;2022-11-20T05:52:41;19.60;53.20
34776;DHT22;20989;52.566;13.346;2022-11-20T05:55:41;19.60;53.20
34776;DHT22;20989;52.566;13.346;2022-11-20T05:58:43;19.60;53.10
34776;DHT22;20989;52.566;13.346;2022-11-20T06:01:43;19.70;53.20
34776;DHT22;20989;52.566;13.346;2022-11-20T06:04:44;19.70;53.10
34776;DHT22;20989;52.566;13.346;2022-11-20T06:07:45;19.70;53.10
34776;DHT22;20989;52.566;13.346;2022-11-20T06:10:45;19.70;53.20
34776;DHT22;20989;52.566;13.346;2022-11-20T06:13:46;19.70;53.10
34776;DHT22;20989;52.566;13.346;2022-11-20T06:16:47;19.70;53.10
34776;DHT22;20989;52.566;13.346;2022-11-20T06:19:48;19.70;53.10
34776;DHT22;20989;52.566;13.346;2022-11-20T06:22:48;19.70;53.10
34776;DHT22;20989;52.566;13.346;2022-11-20T06:25:49;19.70;53.10
34776;DHT22;20989;52.566;13.346;2022-11-20T06:28:51;19.70;53.10
34776;DHT22;20989;52.566;13.346;2022-11-20T06:31:52;19.70;53.20
34776;DHT22;20989;52.566;13.346;2022-11-20T06:34:52;19.70;53.10
34776;DHT22;20989;52.566;13.346;2022-11-20T06:37:53;19.70;53.20
34776;DHT22;20989;52.566;13.346;2022-11-20T06:40:54;19.70;53.20
34776;DHT22;20989;52.566;13.346;2022-11-20T06:43:55;19.70;53.30
34776;DHT22;20989;52.566;13.346;2022-11-20T06:46:56;19.60;53.20
34776;DHT22;20989;52.566;13.346;2022-11-20T06:49:56;19.70;53.20
34776;DHT22;20989;52.566;13.346;2022-11-20T06:53:00;19.70;53.20
34776;DHT22;20989;52.566;13.346;2022-11-20T06:56:01;19.70;53.10
34776;DHT22;20989;52.566;13.346;2022-11-20T06:59:06;19.60;53.10
34776;DHT22;20989;52.566;13.346;2022-11-20T07:02:10;19.70;53.30
34776;DHT22;20989;52.566;13.346;2022-11-20T07:05:12;19.60;53.20
34776;DHT22;20989;52.566;13.346;2022-11-20T07:08:12;19.70;53.20
34776;DHT22;20989;52.566;13.346;2022-11-20T07:11:13;19.70;53.30
34776;DHT22;20989;52.566;13.346;2022-11-20T07:14:14;19.70;53.20
34776;DHT22;20989;52.566;13.346;2022-11-20T07:17:14;19.60;53.30
34776;DHT22;20989;52.566;13.346;2022-11-20T07:20:15;19.60;53.20
34776;DHT22;20989;52.566;13.346;2022-11-20T07:23:16;19.70;53.20
34776;DHT22;20989;52.566;13.346;2022-11-20T07:26:17;19.60;53.20
34776;DHT22;20989;52.566;13.346;2022-11-20T07:29:18;19.60;53.20
34776;DHT22;20989;52.566;13.346;2022-11-20T07:32:18;19.70;53.20
34776;DHT22;20989;52.566;13.346;2022-11-20T07:35:20;19.70;53.20
34776;DHT22;20989;52.566;13.346;2022-11-20T07:38:20;19.60;53.20
34776;DHT22;20989;52.566;13.346;2022-11-20T07:41:21;19.60;53.20
34776;DHT22;20989;52.566;13.346;2022-11-20T07:44:21;19.60;53.20
34776;DHT22;20989;52.566;13.346;2022-11-20T07:47:22;19.60;53.20
34776;DHT22;20989;52.566;13.346;2022-11-20T07:50:23;19.60;53.20
34776;DHT22;20989;52.566;13.346;2022-11-20T07:53:24;19.60;53.20
34776;DHT22;20989;52.566;13.346;2022-11-20T07:56:24;19.60;53.20
34776;DHT22;20989;52.566;13.346;2022-11-20T07:59:25;19.60;53.30
34776;DHT22;20989;52.566;13.346;2022-11-20T08:02:26;19.60;53.30
34776;DHT22;20989;52.566;13.346;2022-11-20T08:05:26;19.60;53.30
34776;DHT22;20989;52.566;13.346;2022-11-20T08:08:28;19.60;53.20
34776;DHT22;20989;52.566;13.346;2022-11-20T08:11:29;19.60;53.20
34776;DHT22;20989;52.566;13.346;2022-11-20T08:14:48;19.60;53.30
34776;DHT22;20989;52.566;13.346;2022-11-20T08:17:48;19.60;53.30
34776;DHT22;20989;52.566;13.346;2022-11-20T08:20:50;19.60;53.30
34776;DHT22;20989;52.566;13.346;2022-11-20T08:23:51;19.60;53.30
34776;DHT22;20989;52.566;13.346;2022-11-20T08:26:52;19.60;53.30
34776;DHT22;20989;52.566;13.346;2022-11-20T08:29:53;19.60;53.40
34776;DHT22;20989;52.566;13.346;2022-11-20T08:32:54;19.60;53.40
34776;DHT22;20989;52.566;13.346;2022-11-20T08:35:59;19.60;53.30
34776;DHT22;20989;52.566;13.346;2022-11-20T08:39:00;19.60;53.30
34776;DHT22;20989;52.566;13.346;2022-11-20T08:42:01;19.60;53.30
34776;DHT22;20989;52.566;13.346;2022-11-20T08:45:01;19.60;53.30
34776;DHT22;20989;52.566;13.346;2022-11-20T08:48:03;19.60;53.30
34776;DHT22;20989;52.566;13.346;2022-11-20T08:51:04;19.60;53.40
34776;DHT22;20989;52.566;13.346;2022-11-20T08:54:05;19.60;53.30
34776;DHT22;20989;52.566;13.346;2022-11-20T08:57:06;19.60;53.30
34776;DHT22;20989;52.566;13.346;2022-11-20T09:00:07;19.60;53.30
34776;DHT22;20989;52.566;13.346;2022-11-20T09:03:08;19.60;53.30
34776;DHT22;20989;52.566;13.346;2022-11-20T09:06:09;19.60;53.30
34776;DHT22;20989;52.566;13.346;2022-11-20T09:09:10;19.60;53.10
34776;DHT22;20989;52.566;13.346;2022-11-20T09:12:10;19.80;53.00
34776;DHT22;20989;52.566;13.346;2022-11-20T09:15:11;19.90;52.70
34776;DHT22;20989;52.566;13.346;2022-11-20T09:18:12;20.00;52.40
34776;DHT22;20989;52.566;13.346;2022-11-20T09:21:13;20.20;52.40
34776;DHT22;20989;52.566;13.346;2022-11-20T09:24:14;20.30;52.30
34776;DHT22;20989;52.566;13.346;2022-11-20T09:27:15;20.40;52.10
34776;DHT22;20989;52.566;13.346;2022-11-20T09:30:20;20.50;52.10
34776;DHT22;20989;52.566;13.346;2022-11-20T09:33:21;20.50;52.00
34776;DHT22;20989;52.566;13.346;2022-11-20T09:36:22;20.60;52.00
34776;DHT22;20989;52.566;13.346;2022-11-20T09:39:22;20.60;51.90
34776;DHT22;20989;52.566;13.346;2022-11-20T09:46:13;20.70;51.90
34776;DHT22;20989;52.566;13.346;2022-11-20T09:49:19;20.80;51.70
34776;DHT22;20989;52.566;13.346;2022-11-20T09:55:31;21.00;51.40
34776;DHT22;20989;52.566;13.346;2022-11-20T09:58:39;21.10;51.30
34776;DHT22;20989;52.566;13.346;2022-11-20T10:01:43;21.10;51.30
34776;DHT22;20989;52.566;13.346;2022-11-20T10:04:50;21.20;51.30
34776;DHT22;20989;52.566;13.346;2022-11-20T10:08:14;21.20;51.80
34776;DHT22;20989;52.566;13.346;2022-11-20T10:15:02;21.20;51.30
34776;DHT22;20989;52.566;13.346;2022-11-20T10:21:34;21.20;51.40
34776;DHT22;20989;52.566;13.346;2022-11-20T10:24:48;21.20;51.40
34776;DHT22;20989;52.566;13.346;2022-11-20T10:34:33;21.20;51.60
34776;DHT22;20989;52.566;13.346;2022-11-20T10:37:37;21.20;51.30
34776;DHT22;20989;52.566;13.346;2022-11-20T10:40:44;21.10;51.40
34776;DHT22;20989;52.566;13.346;2022-11-20T10:43:46;21.00;51.40
34776;DHT22;20989;52.566;13.346;2022-11-20T10:46:48;21.00;51.40
34776;DHT22;20989;52.566;13.346;2022-11-20T10:49:52;20.90;51.40
34776;DHT22;20989;52.566;13.346;2022-11-20T10:54:02;20.90;51.40
34776;DHT22;20989;52.566;13.346;2022-11-20T10:57:00;20.90;51.50
34776;DHT22;20989;52.566;13.346;2022-11-20T11:00:12;20.80;51.50
34776;DHT22;20989;52.566;13.346;2022-11-20T11:03:27;20.80;51.50
34776;DHT22;20989;52.566;13.346;2022-11-20T11:06:42;20.80;51.60
34776;DHT22;20989;52.566;13.346;2022-11-20T11:09:52;20.70;51.60
34776;DHT22;20989;52.566;13.346;2022-11-20T11:12:53;20.70;51.60
34776;DHT22;20989;52.566;13.346;2022-11-20T11:15:54;20.70;51.70
34776;DHT22;20989;52.566;13.346;2022-11-20T11:19:12;20.60;51.60
34776;DHT22;20989;52.566;13.346;2022-11-20T11:22:16;20.60;51.80
34776;DHT22;20989;52.566;13.346;2022-11-20T11:25:37;20.70;51.90
34776;DHT22;20989;52.566;13.346;2022-11-20T11:28:38;20.60;51.90
34776;DHT22;20989;52.566;13.346;2022-11-20T11:31:38;20.60;51.90
34776;DHT22;20989;52.566;13.346;2022-11-20T11:34:39;20.50;51.40
34776;DHT22;20989;52.566;13.346;2022-11-20T11:37:40;20.60;51.00
34776;DHT22;20989;52.566;13.346;2022-11-20T11:40:41;20.60;50.70
34776;DHT22;20989;52.566;13.346;2022-11-20T11:43:57;20.70;50.70
34776;DHT22;20989;52.566;13.346;2022-11-20T11:47:26;20.80;50.60
34776;DHT22;20989;52.566;13.346;2022-11-20T11:50:30;20.80;50.60
34776;DHT22;20989;52.566;13.346;2022-11-20T11:53:32;20.90;50.60
34776;DHT22;20989;52.566;13.346;2022-11-20T11:56:34;20.90;51.20
34776;DHT22;20989;52.566;13.346;2022-11-20T11:59:51;20.90;50.60
34776;DHT22;20989;52.566;13.346;2022-11-20T12:03:05;21.00;50.80
34776;DHT22;20989;52.566;13.346;2022-11-20T12:06:14;21.00;50.70
34776;DHT22;20989;52.566;13.346;2022-11-20T12:09:16;21.00;50.70
34776;DHT22;20989;52.566;13.346;2022-11-20T12:12:22;21.00;50.60
34776;DHT22;20989;52.566;13.346;2022-11-20T12:15:33;21.00;51.00
34776;DHT22;20989;52.566;13.346;2022-11-20T12:18:34;21.00;50.90
34776;DHT22;20989;52.566;13.346;2022-11-20T12:25:31;21.10;50.80
34776;DHT22;20989;52.566;13.346;2022-11-20T12:29:25;21.10;50.80
34776;DHT22;20989;52.566;13.346;2022-11-20T12:35:38;21.10;50.80
34776;DHT22;20989;52.566;13.346;2022-11-20T12:45:46;21.00;50.90
34776;DHT22;20989;52.566;13.346;2022-11-20T12:55:42;20.90;50.90
34776;DHT22;20989;52.566;13.346;2022-11-20T12:59:09;20.80;50.80
34776;DHT22;20989;52.566;13.346;2022-11-20T13:05:19;20.80;50.50
34776;DHT22;20989;52.566;13.346;2022-11-20T13:08:29;20.90;50.50
34776;DHT22;20989;52.566;13.346;2022-11-20T13:14:47;20.90;50.50
34776;DHT22;20989;52.566;13.346;2022-11-20T13:17:57;20.90;50.80
34776;DHT22;20989;52.566;13.346;2022-11-20T13:20:59;21.00;50.50
34776;DHT22;20989;52.566;13.346;2022-11-20T13:30:15;20.90;50.90
34776;DHT22;20989;52.566;13.346;2022-11-20T13:33:35;20.90;50.80
34776;DHT22;20989;52.566;13.346;2022-11-20T13:36:36;21.00;51.10
34776;DHT22;20989;52.566;13.346;2022-11-20T13:39:48;20.90;51.00
34776;DHT22;20989;52.566;13.346;2022-11-20T13:43:11;20.90;50.90
34776;DHT22;20989;52.566;13.346;2022-11-20T13:46:15;20.90;51.00
34776;DHT22;20989;52.566;13.346;2022-11-20T13:49:37;20.90;51.00
34776;DHT22;20989;52.566;13.346;2022-11-20T13:56:10;21.10;51.70
34776;DHT22;20989;52.566;13.346;2022-11-20T14:02:38;21.20;50.50
34776;DHT22;20989;52.566;13.346;2022-11-20T14:05:50;21.30;50.30
34776;DHT22;20989;52.566;13.346;2022-11-20T14:08:51;21.40;50.10
34776;DHT22;20989;52.566;13.346;2022-11-20T14:11:52;21.40;50.10
34776;DHT22;20989;52.566;13.346;2022-11-20T14:14:54;21.40;50.40
34776;DHT22;20989;52.566;13.346;2022-11-20T14:17:55;21.30;50.50
34776;DHT22;20989;52.566;13.346;2022-11-20T14:20:56;21.40;50.30
34776;DHT22;20989;52.566;13.346;2022-11-20T14:24:07;21.40;50.10
34776;DHT22;20989;52.566;13.346;2022-11-20T14:27:20;21.40;50.30
34776;DHT22;20989;52.566;13.346;2022-11-20T14:30:47;21.40;50.80
34776;DHT22;20989;52.566;13.346;2022-11-20T14:33:46;21.50;50.30
34776;DHT22;20989;52.566;13.346;2022-11-20T14:36:55;21.40;50.30
34776;DHT22;20989;52.566;13.346;2022-11-20T14:39:58;21.30;50.90
34776;DHT22;20989;52.566;13.346;2022-11-20T14:42:59;21.40;50.30
34776;DHT22;20989;52.566;13.346;2022-11-20T14:46:03;21.30;50.40
34776;DHT22;20989;52.566;13.346;2022-11-20T14:49:05;21.30;50.30
34776;DHT22;20989;52.566;13.346;2022-11-20T14:52:26;21.30;50.50
34776;DHT22;20989;52.566;13.346;2022-11-20T14:55:36;21.30;50.40
34776;DHT22;20989;52.566;13.346;2022-11-20T14:58:38;21.30;50.50
34776;DHT22;20989;52.566;13.346;2022-11-20T15:01:38;21.40;50.10
34776;DHT22;20989;52.566;13.346;2022-11-20T15:04:50;21.40;50.10
34776;DHT22;20989;52.566;13.346;2022-11-20T15:08:07;21.40;50.00
34776;DHT22;20989;52.566;13.346;2022-11-20T15:11:40;21.40;50.20
34776;DHT22;20989;52.566;13.346;2022-11-20T15:14:40;21.40;50.20
34776;DHT22;20989;52.566;13.346;2022-11-20T15:17:40;21.40;50.50
34776;DHT22;20989;52.566;13.346;2022-11-20T15:20:42;21.30;50.50
34776;DHT22;20989;52.566;13.346;2022-11-20T15:23:44;21.30;50.50
34776;DHT22;20989;52.566;13.346;2022-11-20T15:26:44;21.30;50.70
34776;DHT22;20989;52.566;13.346;2022-11-20T15:29:45;21.30;50.70
34776;DHT22;20989;52.566;13.346;2022-11-20T15:32:47;21.30;50.60
34776;DHT22;20989;52.566;13.346;2022-11-20T15:35:48;21.40;50.30
34776;DHT22;20989;52.566;13.346;2022-11-20T15:38:48;21.40;50.30
34776;DHT22;20989;52.566;13.346;2022-11-20T15:41:49;21.40;50.60
34776;DHT22;20989;52.566;13.346;2022-11-20T15:44:50;21.30;50.30
34776;DHT22;20989;52.566;13.346;2022-11-20T15:47:50;21.30;50.70
34776;DHT22;20989;52.566;13.346;2022-11-20T15:54:12;21.30;50.90
34776;DHT22;20989;52.566;13.346;2022-11-20T15:57:13;21.30;50.80
34776;DHT22;20989;52.566;13.346;2022-11-20T16:00:15;21.30;51.30
34776;DHT22;20989;52.566;13.346;2022-11-20T16:03:16;21.30;50.60
34776;DHT22;20989;52.566;13.346;2022-11-20T16:06:17;21.40;50.60
34776;DHT22;20989;52.566;13.346;2022-11-20T16:09:18;21.40;51.00
34776;DHT22;20989;52.566;13.346;2022-11-20T16:12:18;21.40;50.30
34776;DHT22;20989;52.566;13.346;2022-11-20T16:15:37;21.50;50.40
34776;DHT22;20989;52.566;13.346;2022-11-20T16:18:47;21.40;50.30
34776;DHT22;20989;52.566;13.346;2022-11-20T16:21:48;21.40;50.40
34776;DHT22;20989;52.566;13.346;2022-11-20T16:24:49;21.50;50.70
34776;DHT22;20989;52.566;13.346;2022-11-20T16:27:49;21.50;50.20
34776;DHT22;20989;52.566;13.346;2022-11-20T16:30:50;21.50;50.30
34776;DHT22;20989;52.566;13.346;2022-11-20T16:33:52;21.50;50.40
34776;DHT22;20989;52.566;13.346;2022-11-20T16:36:53;21.50;50.10
34776;DHT22;20989;52.566;13.346;2022-11-20T16:39:54;21.60;50.10
34776;DHT22;20989;52.566;13.346;2022-11-20T16:42:56;21.60;50.10
34776;DHT22;20989;52.566;13.346;2022-11-20T16:45:57;21.60;49.90
34776;DHT22;20989;52.566;13.346;2022-11-20T16:49:03;21.60;50.60
34776;DHT22;20989;52.566;13.346;2022-11-20T16:52:04;21.50;50.50
34776;DHT22;20989;52.566;13.346;2022-11-20T16:55:05;21.60;50.40
34776;DHT22;20989;52.566;13.346;2022-11-20T16:58:06;21.50;50.60
34776;DHT22;20989;52.566;13.346;2022-11-20T17:01:07;21.50;50.50
34776;DHT22;20989;52.566;13.346;2022-11-20T17:04:10;21.50;50.50
34776;DHT22;20989;52.566;13.346;2022-11-20T17:07:10;21.50;50.40
34776;DHT22;20989;52.566;13.346;2022-11-20T17:10:11;21.50;50.40
34776;DHT22;20989;52.566;13.346;2022-11-20T17:13:12;21.50;50.30
34776;DHT22;20989;52.566;13.346;2022-11-20T17:16:21;21.50;50.50
34776;DHT22;20989;52.566;13.346;2022-11-20T17:19:22;21.50;50.10
34776;DHT22;20989;52.566;13.346;2022-11-20T17:22:22;21.60;50.00
34776;DHT22;20989;52.566;13.346;2022-11-20T17:25:23;21.50;50.20
34776;DHT22;20989;52.566;13.346;2022-11-20T17:28:24;21.40;50.30
34776;DHT22;20989;52.566;13.346;2022-11-20T17:31:26;21.30;50.50
34776;DHT22;20989;52.566;13.346;2022-11-20T17:34:26;21.30;50.70
34776;DHT22;20989;52.566;13.346;2022-11-20T17:37:27;21.30;50.70
34776;DHT22;20989;52.566;13.346;2022-11-20T17:40:28;21.40;50.60
34776;DHT22;20989;52.566;13.346;2022-11-20T17:43:30;21.40;50.70
34776;DHT22;20989;52.566;13.346;2022-11-20T17:46:32;21.40;50.30
34776;DHT22;20989;52.566;13.346;2022-11-20T17:49:33;21.40;50.30
34776;DHT22;20989;52.566;13.346;2022-11-20T17:52:34;21.40;50.40
34776;DHT22;20989;52.566;13.346;2022-11-20T17:55:35;21.30;51.40
34776;DHT22;20989;52.566;13.346;2022-11-20T17:58:54;21.20;51.10
34776;DHT22;20989;52.566;13.346;2022-11-20T18:01:55;21.20;51.10
34776;DHT22;20989;52.566;13.346;2022-11-20T18:04:55;21.10;51.20
34776;DHT22;20989;52.566;13.346;2022-11-20T18:07:56;21.10;51.40
34776;DHT22;20989;52.566;13.346;2022-11-20T18:10:57;21.10;51.30
34776;DHT22;20989;52.566;13.346;2022-11-20T18:13:58;21.00;51.40
34776;DHT22;20989;52.566;13.346;2022-11-20T18:17:18;21.00;51.70
34776;DHT22;20989;52.566;13.346;2022-11-20T18:20:19;21.00;51.40
34776;DHT22;20989;52.566;13.346;2022-11-20T18:23:19;21.10;51.90
34776;DHT22;20989;52.566;13.346;2022-11-20T18:26:20;21.10;51.70
34776;DHT22;20989;52.566;13.346;2022-11-20T18:29:21;21.10;51.60
34776;DHT22;20989;52.566;13.346;2022-11-20T18:32:22;21.10;51.90
34776;DHT22;20989;52.566;13.346;2022-11-20T18:35:23;21.00;51.70
34776;DHT22;20989;52.566;13.346;2022-11-20T18:38:25;21.00;51.60
34776;DHT22;20989;52.566;13.346;2022-11-20T18:41:28;21.10;51.70
34776;DHT22;20989;52.566;13.346;2022-11-20T18:44:47;21.10;51.80
34776;DHT22;20989;52.566;13.346;2022-11-20T18:47:51;21.00;51.70
34776;DHT22;20989;52.566;13.346;2022-11-20T18:50:51;21.00;51.50
34776;DHT22;20989;52.566;13.346;2022-11-20T18:53:52;21.00;51.50
34776;DHT22;20989;52.566;13.346;2022-11-20T18:56:52;21.00;51.50
34776;DHT22;20989;52.566;13.346;2022-11-20T18:59:54;21.00;51.50
34776;DHT22;20989;52.566;13.346;2022-11-20T19:02:55;21.10;51.60
34776;DHT22;20989;52.566;13.346;2022-11-20T19:05:56;21.10;51.30
34776;DHT22;20989;52.566;13.346;2022-11-20T19:08:57;21.10;51.50
34776;DHT22;20989;52.566;13.346;2022-11-20T19:11:57;21.10;51.30
34776;DHT22;20989;52.566;13.346;2022-11-20T19:14:58;21.10;51.40
34776;DHT22;20989;52.566;13.346;2022-11-20T19:17:59;21.10;51.50
34776;DHT22;20989;52.566;13.346;2022-11-20T19:21:08;21.20;51.30
34776;DHT22;20989;52.566;13.346;2022-11-20T19:24:09;21.20;51.40
34776;DHT22;20989;52.566;13.346;2022-11-20T19:27:09;21.10;51.80
34776;DHT22;20989;52.566;13.346;2022-11-20T19:30:10;21.10;51.90
34776;DHT22;20989;52.566;13.346;2022-11-20T19:33:11;21.00;51.80
34776;DHT22;20989;52.566;13.346;2022-11-20T19:36:17;21.00;51.90
34776;DHT22;20989;52.566;13.346;2022-11-20T19:39:18;20.90;52.00
34776;DHT22;20989;52.566;13.346;2022-11-20T19:42:19;20.90;51.90
34776;DHT22;20989;52.566;13.346;2022-11-20T19:45:19;20.90;52.30
34776;DHT22;20989;52.566;13.346;2022-11-20T19:48:20;20.90;52.10
34776;DHT22;20989;52.566;13.346;2022-11-20T19:51:24;20.80;52.10
34776;DHT22;20989;52.566;13.346;2022-11-20T19:54:25;20.80;52.00
34776;DHT22;20989;52.566;13.346;2022-11-20T19:57:26;20.60;52.10
34776;DHT22;20989;52.566;13.346;2022-11-20T20:00:26;20.60;52.20
34776;DHT22;20989;52.566;13.346;2022-11-20T20:03:27;20.60;52.30